createdAt,value
2018-04-12T00:01:05.560Z,35.20
2018-04-12T00:05:56.477Z,40.10
2018-04-12T00:10:47.380Z,40.30
2018-04-12T00:15:38.293Z,43.23
2018-04-12T00:20:29.197Z,36.30
2018-04-12T00:25:20.164Z,34.73
2018-04-12T00:30:11.066Z,38.43
2018-04-12T00:35:02.712Z,33.90
2018-04-12T00:39:54.358Z,40.97
2018-04-12T00:44:46.009Z,41.47
2018-04-12T00:49:36.906Z,39.93
2018-04-12T00:54:31.855Z,37.17
2018-04-12T00:59:22.796Z,40.13
2018-04-12T01:04:13.679Z,39.57
2018-04-12T01:09:05.317Z,45.40
2018-04-12T01:13:56.210Z,36.30
2018-04-12T01:18:47.103Z,48.83
2018-04-12T01:23:37.981Z,44.80
2018-04-12T01:28:29.606Z,41.77
2018-04-12T01:33:20.483Z,42.00
2018-04-12T01:38:11.434Z,44.30
2018-04-12T01:43:02.330Z,51.20
2018-04-12T01:47:53.971Z,38.97
2018-04-12T01:52:44.870Z,39.23
2018-04-12T01:57:35.755Z,46.07
2018-04-12T02:02:27.455Z,46.27
2018-04-12T02:07:18.390Z,42.97
2018-04-12T02:12:09.275Z,46.60
2018-04-12T02:17:00.155Z,40.80
2018-04-12T02:21:51.039Z,39.77
2018-04-12T02:26:43.422Z,37.67
2018-04-12T02:31:35.051Z,37.60
2018-04-12T02:36:25.936Z,42.00
2018-04-12T02:41:17.555Z,40.03
2018-04-12T02:46:08.474Z,42.90
2018-04-12T02:50:59.383Z,39.23
2018-04-12T02:55:51.015Z,41.27
2018-04-12T03:00:41.942Z,41.10
2018-04-12T03:05:32.842Z,43.87
2018-04-12T03:10:23.732Z,45.27
2018-04-12T03:15:14.628Z,38.00
2018-04-12T03:20:05.550Z,41.60
2018-04-12T03:24:56.447Z,43.00
2018-04-12T03:29:47.382Z,44.30
2018-04-12T03:34:39.030Z,40.70
2018-04-12T03:39:30.016Z,42.53
2018-04-12T03:44:20.912Z,41.40
2018-04-12T03:49:11.858Z,36.57
2018-04-12T03:54:02.711Z,36.97
2018-04-12T03:58:53.602Z,38.13
2018-04-12T04:03:44.479Z,41.83
2018-04-12T04:08:35.386Z,40.00
2018-04-12T04:13:27.021Z,38.53
2018-04-12T04:18:31.318Z,38.37
2018-04-12T04:23:22.211Z,36.13
2018-04-12T04:28:13.147Z,36.83
2018-04-12T04:33:04.046Z,39.50
2018-04-12T04:37:54.940Z,43.40
2018-04-12T04:42:47.124Z,40.20
2018-04-12T04:47:38.038Z,36.37
2018-04-12T04:52:29.671Z,35.17
2018-04-12T04:57:20.601Z,43.47
2018-04-12T05:02:11.500Z,37.27
2018-04-12T05:07:02.403Z,40.30
2018-04-12T05:11:53.386Z,39.60
2018-04-12T05:16:44.322Z,40.07
2018-04-12T05:21:35.216Z,40.60
2018-04-12T05:26:26.126Z,42.10
2018-04-12T05:31:17.015Z,36.77
2018-04-12T05:36:07.904Z,33.00
2018-04-12T05:40:58.807Z,38.97
2018-04-12T05:45:49.731Z,33.53
2018-04-12T05:50:40.676Z,34.80
2018-04-12T05:55:31.563Z,36.13
2018-04-12T06:00:23.207Z,40.23
2018-04-12T06:05:14.868Z,33.77
2018-04-12T06:10:06.500Z,30.13
2018-04-12T06:14:57.391Z,30.10
2018-04-12T06:19:48.289Z,38.90
2018-04-12T06:24:39.183Z,30.10
2018-04-12T06:29:30.085Z,35.00
2018-04-12T06:34:20.994Z,33.30
2018-04-12T06:39:11.887Z,31.87
2018-04-12T06:44:03.523Z,27.63
2018-04-12T06:48:54.433Z,28.53
2018-04-12T06:53:45.386Z,20.67
2018-04-12T06:58:36.319Z,19.40
2018-04-12T07:03:27.205Z,20.67
2018-04-12T07:08:18.100Z,24.80
2018-04-12T07:13:09.736Z,18.43
2018-04-12T07:18:01.364Z,18.40
2018-04-12T07:22:52.356Z,22.03
2018-04-12T07:27:43.251Z,20.13
2018-04-12T07:32:34.875Z,22.00
2018-04-12T07:37:25.755Z,19.33
2018-04-12T07:42:17.379Z,20.57
2018-04-12T07:47:08.292Z,18.20
2018-04-12T07:51:59.162Z,16.77
2018-04-12T07:56:50.046Z,19.07
2018-04-12T08:01:40.934Z,18.33
2018-04-12T08:06:31.940Z,18.03
2018-04-12T08:11:22.823Z,17.47
2018-04-12T08:16:14.476Z,17.10
2018-04-12T08:21:06.112Z,19.07
2018-04-12T08:25:56.995Z,16.47
2018-04-12T08:30:47.893Z,16.43
2018-04-12T08:35:39.523Z,16.40
2018-04-12T08:40:30.443Z,14.97
2018-04-12T08:45:21.344Z,13.70
2018-04-12T08:50:12.254Z,17.73
2018-04-12T08:55:03.159Z,14.60
2018-04-12T08:59:54.791Z,13.43
2018-04-12T09:04:45.692Z,15.13
2018-04-12T09:09:36.596Z,12.97
2018-04-12T09:14:27.492Z,12.30
2018-04-12T09:19:19.202Z,12.07
2018-04-12T09:24:10.095Z,14.40
2018-04-12T09:29:00.991Z,13.23
2018-04-12T09:39:10.436Z,18.80
2018-04-12T09:44:01.350Z,14.87
2018-04-12T09:48:52.992Z,12.80
2018-04-12T09:53:44.709Z,13.10
2018-04-12T09:58:35.633Z,11.50
2018-04-12T10:03:26.523Z,11.07
2018-04-12T10:08:23.679Z,10.17
2018-04-12T10:13:14.564Z,11.00
2018-04-12T10:18:05.439Z,11.70
2018-04-12T10:22:57.071Z,8.80
2018-04-12T10:27:47.951Z,9.63
2018-04-12T10:32:38.835Z,8.83
2018-04-12T10:37:29.738Z,8.30
2018-04-12T10:42:20.623Z,9.33
2018-04-12T10:47:12.305Z,9.00
2018-04-12T10:52:03.236Z,8.93
2018-04-12T10:56:54.169Z,8.37
2018-04-12T11:01:45.078Z,9.67
2018-04-12T11:06:35.971Z,10.40
2018-04-12T11:11:27.684Z,9.63
2018-04-12T11:16:18.576Z,10.33
2018-04-12T11:21:09.503Z,10.10
2018-04-12T11:26:01.122Z,10.10
2018-04-12T11:30:52.895Z,10.77
2018-04-12T11:35:43.791Z,9.93
2018-04-12T11:40:34.720Z,9.03
2018-04-12T11:45:25.588Z,8.97
2018-04-12T11:50:16.484Z,9.80
2018-04-12T11:55:07.383Z,8.07
2018-04-12T11:59:58.279Z,7.70
2018-04-12T12:04:49.915Z,8.03
2018-04-12T12:09:40.804Z,8.17
2018-04-12T12:14:31.675Z,7.70
2018-04-12T12:19:22.582Z,7.93
2018-04-12T12:24:13.486Z,7.27
2018-04-12T12:29:05.123Z,7.97
2018-04-12T12:33:56.003Z,7.07
2018-04-12T12:38:46.883Z,5.20
2018-04-12T12:43:37.759Z,5.27
2018-04-12T12:48:29.383Z,4.57
2018-04-12T12:53:20.260Z,4.10
2018-04-12T12:58:11.147Z,4.60
2018-04-12T13:03:02.049Z,5.17
2018-04-12T13:07:52.966Z,4.50
2018-04-12T13:12:43.860Z,4.40
2018-04-12T13:17:35.506Z,4.47
2018-04-12T13:22:26.404Z,4.70
2018-04-12T13:27:17.308Z,7.83
2018-04-12T13:32:08.204Z,4.63
2018-04-12T13:36:59.840Z,8.37
2018-04-12T13:41:50.757Z,5.77
2018-04-12T13:46:41.773Z,6.37
2018-04-12T13:51:32.667Z,6.20
2018-04-12T13:56:23.555Z,9.03
2018-04-12T14:01:14.623Z,4.40
2018-04-12T14:06:05.526Z,6.30
2018-04-12T14:10:57.283Z,4.90
2018-04-12T14:15:48.255Z,5.57
2018-04-12T14:20:39.165Z,4.70
2018-04-12T14:25:30.059Z,5.73
2018-04-12T14:30:21.691Z,12.13
2018-04-12T14:35:13.324Z,6.40
2018-04-12T14:40:04.456Z,6.00
2018-04-12T14:44:55.364Z,5.73
2018-04-12T14:49:46.264Z,8.20
2018-04-12T14:54:37.205Z,3.50
2018-04-12T14:59:28.102Z,3.77
2018-04-12T15:04:19.724Z,3.60
2018-04-12T15:09:10.746Z,3.93
2018-04-12T15:14:01.643Z,3.93
2018-04-12T15:18:52.580Z,5.33
2018-04-12T15:23:44.180Z,4.67
2018-04-12T15:28:35.119Z,4.90
2018-04-12T15:33:26.099Z,5.20
2018-04-12T15:38:17.027Z,4.30
2018-04-12T15:43:07.911Z,4.80
2018-04-12T15:47:59.616Z,5.00
2018-04-12T15:52:50.503Z,5.60
2018-04-12T15:57:41.441Z,7.60
2018-04-12T16:02:32.379Z,7.17
2018-04-12T16:07:23.287Z,5.17
2018-04-12T16:12:14.351Z,5.53
2018-04-12T16:17:05.255Z,9.80
2018-04-12T16:21:56.234Z,12.20
2018-04-12T16:26:47.246Z,9.60
2018-04-12T16:31:38.193Z,8.83
2018-04-12T16:36:29.148Z,10.47
2018-04-12T16:41:20.787Z,10.60
2018-04-12T16:46:12.425Z,10.43
2018-04-12T16:51:03.373Z,10.77
2018-04-12T16:55:54.229Z,19.20
2018-04-12T17:00:45.160Z,10.50
2018-04-12T17:05:36.786Z,11.17
2018-04-12T17:10:28.426Z,11.23
2018-04-12T17:15:20.049Z,14.20
2018-04-12T17:20:11.029Z,12.30
2018-04-12T17:25:01.926Z,17.33
2018-04-12T17:29:53.558Z,13.60
2018-04-12T17:34:44.442Z,13.70
2018-04-12T17:39:35.381Z,22.43
2018-04-12T17:44:26.301Z,18.93
2018-04-12T17:49:17.211Z,14.23
2018-04-12T17:54:08.848Z,15.03
2018-04-12T17:58:59.765Z,14.47
2018-04-12T18:03:50.668Z,14.87
2018-04-12T18:08:41.613Z,18.23
2018-04-12T18:13:32.515Z,17.30
2018-04-12T18:18:24.233Z,18.93
2018-04-12T18:23:15.158Z,21.50
2018-04-12T18:28:06.067Z,19.27
2018-04-12T18:32:56.983Z,20.07
2018-04-12T18:37:48.706Z,21.17
2018-04-12T18:42:40.355Z,21.53
2018-04-12T18:47:31.240Z,29.03
2018-04-12T18:52:22.124Z,26.67
2018-04-12T18:57:13.007Z,25.17
2018-04-12T19:02:03.888Z,22.03
2018-04-12T19:06:55.545Z,31.67
2018-04-12T19:11:47.180Z,33.30
2018-04-12T19:16:38.093Z,34.30
2018-04-12T19:21:29.002Z,25.03
2018-04-12T19:26:19.903Z,34.30
2018-04-12T19:31:11.570Z,31.90
2018-04-12T19:36:02.533Z,29.90
2018-04-12T19:40:53.432Z,28.30
2018-04-12T19:45:44.319Z,30.43
2018-04-12T19:50:35.947Z,31.87
2018-04-12T19:55:27.579Z,28.73
2018-04-12T20:00:19.222Z,32.33
2018-04-12T20:05:10.142Z,34.50
2018-04-12T20:10:01.791Z,35.33
2018-04-12T20:14:52.687Z,31.03
2018-04-12T20:19:43.575Z,42.33
2018-04-12T20:24:34.499Z,39.93
2018-04-12T20:29:25.391Z,35.83
2018-04-12T20:34:17.027Z,33.30
2018-04-12T20:39:08.655Z,35.83
2018-04-12T20:43:59.547Z,34.87
2018-04-12T20:48:50.439Z,39.87
2018-04-12T20:53:42.090Z,33.77
2018-04-12T20:58:33.731Z,42.80
2018-04-12T21:03:25.355Z,40.67
2018-04-12T21:08:16.287Z,34.80
2018-04-12T21:13:07.152Z,42.33
2018-04-12T21:17:58.783Z,45.33
2018-04-12T21:22:50.412Z,39.23
2018-04-12T21:27:41.327Z,35.20
2018-04-12T21:32:32.249Z,39.67
2018-04-12T21:37:23.177Z,37.53
2018-04-12T21:42:14.057Z,42.20
2018-04-12T21:47:05.691Z,43.10
2018-04-12T21:51:56.584Z,41.90
2018-04-12T21:56:47.474Z,39.30
2018-04-12T22:01:39.126Z,44.47
2018-04-12T22:06:30.751Z,46.40
2018-04-12T22:11:21.639Z,38.40
2018-04-12T22:16:12.527Z,42.30
2018-04-12T22:21:03.395Z,45.47
2018-04-12T22:25:54.286Z,46.30
2018-04-12T22:30:45.167Z,41.70
2018-04-12T22:35:36.050Z,45.20
2018-04-12T22:40:26.928Z,41.03
2018-04-12T22:45:17.818Z,43.77
2018-04-12T22:50:08.708Z,43.20
2018-04-12T22:54:59.603Z,41.33
2018-04-12T22:59:51.254Z,40.40
2018-04-12T23:04:42.891Z,39.93
2018-04-12T23:09:33.783Z,43.10
2018-04-12T23:14:24.693Z,41.10
2018-04-12T23:19:15.591Z,41.57
2018-04-12T23:24:06.481Z,41.70
2018-04-12T23:28:57.386Z,43.83
2018-04-12T23:33:48.275Z,45.10
2018-04-12T23:38:39.191Z,45.97
2018-04-12T23:43:30.063Z,42.60
2018-04-12T23:48:21.714Z,45.50
2018-04-12T23:53:13.351Z,49.40
2018-04-12T23:58:04.243Z,42.13
